Time;durP1;ratioP1;P1;durP2;ratioP2;P2;SDS_P1;SDS_P2;PMS_P1;PMS_P2;Temp;Humidity;BMP_temperature;BMP_pressure;BME280_temperature;BME280_humidity;BME280_pressure;Samples;Min_cycle;Max_cycle;Signal;HPM_P1;HPM_P2
2023/08/22 00:00:08;;;;;;;;;;;24.10;60.90;;;;;;8499673;27;19996;-49
2023/08/22 00:04:08;;;;;;;;;;;24.10;60.90;;;;;;8500328;27;20365;-50
2023/08/22 00:08:09;;;;;;;;;;;24.10;60.90;;;;;;8516511;27;19934;-49
2023/08/22 00:12:09;;;;;;;;;;;24.10;60.90;;;;;;8499921;27;19918;-49
2023/08/22 00:16:10;;;;;;;;;;;24.10;60.80;;;;;;8500640;27;19923;-50
2023/08/22 00:20:11;;;;;;;;;;;24.10;60.90;;;;;;8499252;27;19916;-51
2023/08/22 00:24:11;;;;;;;;;;;24.10;60.90;;;;;;8500369;27;19911;-50
2023/08/22 00:28:14;;;;;;;;;;;24.10;60.90;;;;;;8499123;27;19954;-51
2023/08/22 00:32:14;;;;;;;;;;;24.10;60.90;;;;;;8500104;27;19963;-50
2023/08/22 00:36:15;;;;;;;;;;;24.10;60.90;;;;;;8498702;27;19908;-51
2023/08/22 00:40:15;;;;;;;;;;;24.10;61.00;;;;;;8481539;27;20313;-48
2023/08/22 00:44:16;;;;;;;;;;;24.10;61.00;;;;;;8498934;27;19918;-48
2023/08/22 00:48:16;;;;;;;;;;;24.10;61.00;;;;;;8500215;27;19912;-48
2023/08/22 00:52:17;;;;;;;;;;;24.10;61.00;;;;;;8499619;27;19924;-50
2023/08/22 00:56:17;;;;;;;;;;;24.10;61.00;;;;;;8499932;27;19915;-51
2023/08/22 01:00:18;;;;;;;;;;;24.10;60.90;;;;;;8499326;27;19936;-50
2023/08/22 01:04:19;;;;;;;;;;;24.10;60.90;;;;;;8497676;27;20277;-52
2023/08/22 01:08:28;;;;;;;;;;;24.10;60.90;;;;;;8499526;27;19907;-50
2023/08/22 01:12:32;;;;;;;;;;;24.10;60.90;;;;;;8497104;27;19959;-51
2023/08/22 01:16:33;;;;;;;;;;;24.10;60.90;;;;;;8499527;27;19920;-49
2023/08/22 01:20:33;;;;;;;;;;;24.10;60.90;;;;;;8498131;27;19922;-51
2023/08/22 01:24:34;;;;;;;;;;;24.10;60.90;;;;;;8498439;27;19911;-52
2023/08/22 01:28:37;;;;;;;;;;;24.10;60.90;;;;;;8498343;27;19950;-50
2023/08/22 01:32:40;;;;;;;;;;;24.10;60.90;;;;;;8496965;27;20006;-50
2023/08/22 01:36:42;;;;;;;;;;;24.10;60.90;;;;;;8479734;27;19987;-51
2023/08/22 01:40:43;;;;;;;;;;;24.10;60.90;;;;;;8496331;27;19911;-50
2023/08/22 01:44:44;;;;;;;;;;;24.10;60.90;;;;;;8497331;27;19911;-51
2023/08/22 01:48:45;;;;;;;;;;;24.10;60.90;;;;;;8512325;27;19911;-50
2023/08/22 01:52:45;;;;;;;;;;;24.10;60.90;;;;;;8497114;27;19918;-50
2023/08/22 01:56:46;;;;;;;;;;;24.10;60.90;;;;;;8496712;27;19912;-49
2023/08/22 02:00:46;;;;;;;;;;;24.10;60.90;;;;;;8499097;27;19916;-51
2023/08/22 02:04:47;;;;;;;;;;;24.10;60.90;;;;;;8497641;27;19999;-49
2023/08/22 02:08:47;;;;;;;;;;;24.10;60.90;;;;;;8496693;27;19968;-49
2023/08/22 02:12:48;;;;;;;;;;;24.10;60.90;;;;;;8497401;27;20006;-49
2023/08/22 02:16:48;;;;;;;;;;;24.10;60.90;;;;;;8495654;27;19931;-51
2023/08/22 02:20:53;;;;;;;;;;;24.10;61.00;;;;;;8496933;28;19925;-50
2023/08/22 02:24:53;;;;;;;;;;;24.10;61.00;;;;;;8503822;27;19956;-52
2023/08/22 02:28:54;;;;;;;;;;;24.10;61.00;;;;;;8508387;27;19964;-52
2023/08/22 02:32:54;;;;;;;;;;;24.00;61.00;;;;;;8507095;27;19911;-51
2023/08/22 02:36:55;;;;;;;;;;;24.00;61.00;;;;;;8508354;27;19915;-51
2023/08/22 02:40:56;;;;;;;;;;;24.10;61.00;;;;;;8507388;27;20462;-50
2023/08/22 02:44:56;;;;;;;;;;;24.00;61.00;;;;;;8507642;27;19973;-49
2023/08/22 02:48:57;;;;;;;;;;;24.10;61.00;;;;;;8507581;27;19946;-49
2023/08/22 02:52:57;;;;;;;;;;;24.10;61.00;;;;;;8507286;27;19914;-51
2023/08/22 02:56:58;;;;;;;;;;;24.10;60.90;;;;;;8519535;27;20284;-50
2023/08/22 03:00:58;;;;;;;;;;;24.10;60.90;;;;;;8506774;27;19927;-50
2023/08/22 03:04:59;;;;;;;;;;;24.10;61.00;;;;;;8507779;27;19942;-50
2023/08/22 03:09:00;;;;;;;;;;;24.10;60.90;;;;;;8506635;27;20014;-51
2023/08/22 03:13:00;;;;;;;;;;;24.10;60.90;;;;;;8507803;27;20045;-50
2023/08/22 03:17:01;;;;;;;;;;;24.10;60.90;;;;;;8506091;27;20288;-51
2023/08/22 03:21:01;;;;;;;;;;;24.10;60.90;;;;;;8507644;27;19919;-50
2023/08/22 03:25:02;;;;;;;;;;;24.10;60.90;;;;;;8507181;27;19912;-50
2023/08/22 03:29:03;;;;;;;;;;;24.10;60.90;;;;;;8506903;27;19915;-52
2023/08/22 03:33:03;;;;;;;;;;;24.10;60.90;;;;;;8506992;27;20341;-51
2023/08/22 03:37:04;;;;;;;;;;;24.10;60.90;;;;;;8501698;27;19911;-51
2023/08/22 03:41:05;;;;;;;;;;;24.10;60.90;;;;;;8501776;27;19922;-51
2023/08/22 03:45:06;;;;;;;;;;;24.10;60.90;;;;;;8500575;27;19911;-51
2023/08/22 03:49:07;;;;;;;;;;;24.10;61.00;;;;;;8501488;27;19960;-48
2023/08/22 03:53:08;;;;;;;;;;;24.10;60.90;;;;;;8500227;27;20361;-49
2023/08/22 03:57:08;;;;;;;;;;;24.10;61.00;;;;;;8502563;27;19918;-51
2023/08/22 04:01:09;;;;;;;;;;;24.00;60.90;;;;;;8499773;27;19922;-50
2023/08/22 04:05:09;;;;;;;;;;;24.00;61.00;;;;;;8502251;27;19918;-51
2023/08/22 04:09:10;;;;;;;;;;;24.10;61.10;;;;;;8500232;27;20012;-49
2023/08/22 04:13:11;;;;;;;;;;;24.00;61.00;;;;;;8499874;27;19958;-49
2023/08/22 04:17:11;;;;;;;;;;;24.10;61.10;;;;;;8500506;27;19916;-49
2023/08/22 04:21:12;;;;;;;;;;;24.00;61.00;;;;;;8500430;27;20431;-49
2023/08/22 04:25:13;;;;;;;;;;;24.10;61.20;;;;;;8500694;27;19931;-51
2023/08/22 04:29:13;;;;;;;;;;;24.10;61.00;;;;;;8499086;27;19907;-51
2023/08/22 04:33:14;;;;;;;;;;;24.10;61.00;;;;;;8500301;27;19911;-49
2023/08/22 04:37:14;;;;;;;;;;;24.10;61.00;;;;;;8498661;27;20306;-50
2023/08/22 04:41:15;;;;;;;;;;;24.00;60.90;;;;;;8481382;27;19961;-50
2023/08/22 04:45:15;;;;;;;;;;;24.10;61.00;;;;;;8498428;27;19911;-50
2023/08/22 04:49:16;;;;;;;;;;;24.10;61.00;;;;;;8498977;27;19964;-51
2023/08/22 04:53:16;;;;;;;;;;;24.10;61.00;;;;;;8499368;27;19988;-50
2023/08/22 04:57:20;;;;;;;;;;;24.00;60.90;;;;;;8498855;27;20412;-49
2023/08/22 05:01:20;;;;;;;;;;;24.10;61.00;;;;;;8499307;27;19916;-49
2023/08/22 05:05:21;;;;;;;;;;;24.10;61.00;;;;;;8497915;27;19919;-49
2023/08/22 05:09:22;;;;;;;;;;;24.10;61.00;;;;;;8480496;27;19922;-51
2023/08/22 05:13:22;;;;;;;;;;;24.10;61.00;;;;;;8497958;27;19912;-50
2023/08/22 05:17:23;;;;;;;;;;;24.10;61.00;;;;;;8498582;27;19923;-50
2023/08/22 05:21:24;;;;;;;;;;;24.10;61.00;;;;;;8497776;27;19911;-50
2023/08/22 05:25:24;;;;;;;;;;;24.10;61.00;;;;;;8498794;27;20376;-49
2023/08/22 05:29:25;;;;;;;;;;;24.10;61.00;;;;;;8496647;27;20359;-51
2023/08/22 05:33:25;;;;;;;;;;;24.10;61.00;;;;;;8498460;27;19915;-50
2023/08/22 05:37:26;;;;;;;;;;;24.10;61.00;;;;;;8497331;27;19953;-50
2023/08/22 05:41:26;;;;;;;;;;;24.00;60.90;;;;;;8497133;27;20410;-52
2023/08/22 05:45:27;;;;;;;;;;;24.10;61.00;;;;;;8498008;27;19918;-49
2023/08/22 05:49:27;;;;;;;;;;;24.10;61.00;;;;;;8512630;27;19971;-52
2023/08/22 05:53:28;;;;;;;;;;;24.00;61.00;;;;;;8479692;27;19908;-51
2023/08/22 05:57:29;;;;;;;;;;;24.00;61.00;;;;;;8496071;27;20606;-51
2023/08/22 06:01:29;;;;;;;;;;;24.10;61.10;;;;;;8497468;27;20376;-52
2023/08/22 06:05:30;;;;;;;;;;;24.00;61.00;;;;;;8496424;27;19911;-51
2023/08/22 06:09:30;;;;;;;;;;;24.00;61.00;;;;;;8497449;27;19918;-51
2023/08/22 06:13:31;;;;;;;;;;;24.00;61.80;;;;;;8495970;27;20412;-49
2023/08/22 06:17:32;;;;;;;;;;;24.10;61.00;;;;;;8497179;27;20015;-50
2023/08/22 06:21:32;;;;;;;;;;;24.00;61.00;;;;;;8496247;27;20440;-49
2023/08/22 06:25:33;;;;;;;;;;;24.00;61.00;;;;;;8496640;27;19911;-52
2023/08/22 06:29:33;;;;;;;;;;;24.00;61.00;;;;;;8496436;28;20011;-51
2023/08/22 06:33:34;;;;;;;;;;;24.00;61.00;;;;;;8495703;28;19915;-51
2023/08/22 06:37:34;;;;;;;;;;;24.10;61.00;;;;;;8496583;28;19911;-49
2023/08/22 06:41:35;;;;;;;;;;;24.10;61.00;;;;;;8496441;28;19922;-49
2023/08/22 06:45:36;;;;;;;;;;;24.10;61.00;;;;;;8498276;28;19911;-51
2023/08/22 06:49:36;;;;;;;;;;;24.10;61.00;;;;;;8495524;28;19912;-49
2023/08/22 06:53:37;;;;;;;;;;;24.10;61.00;;;;;;8496682;28;19912;-49
2023/08/22 06:57:38;;;;;;;;;;;24.00;60.90;;;;;;8495730;27;20557;-49
2023/08/22 07:01:39;;;;;;;;;;;24.10;61.00;;;;;;8496706;28;19916;-50
2023/08/22 07:05:39;;;;;;;;;;;24.10;61.00;;;;;;8495659;28;19915;-50
2023/08/22 07:09:40;;;;;;;;;;;24.10;61.00;;;;;;8496366;27;19915;-50
2023/08/22 07:13:40;;;;;;;;;;;24.10;61.00;;;;;;8501890;27;20321;-51
2023/08/22 07:17:41;;;;;;;;;;;24.10;61.00;;;;;;8500685;27;19977;-49
2023/08/22 07:21:41;;;;;;;;;;;24.10;61.00;;;;;;8502808;27;19931;-49
2023/08/22 07:25:46;;;;;;;;;;;24.10;61.00;;;;;;8501988;27;19911;-51
2023/08/22 07:29:46;;;;;;;;;;;24.00;61.00;;;;;;8502501;27;19915;-51
2023/08/22 07:33:47;;;;;;;;;;;24.00;61.00;;;;;;8501651;27;19958;-51
2023/08/22 07:37:47;;;;;;;;;;;24.00;61.00;;;;;;8518113;27;20398;-51
2023/08/22 07:41:48;;;;;;;;;;;24.00;61.10;;;;;;8500932;27;20360;-49
2023/08/22 07:45:48;;;;;;;;;;;24.00;61.10;;;;;;8501393;27;19912;-50
2023/08/22 07:49:49;;;;;;;;;;;24.10;61.10;;;;;;8500983;27;19915;-51
2023/08/22 07:53:49;;;;;;;;;;;24.10;61.10;;;;;;8501132;27;19912;-48
2023/08/22 07:57:50;;;;;;;;;;;24.00;61.00;;;;;;8501996;27;19976;-49
2023/08/22 08:01:51;;;;;;;;;;;24.00;61.00;;;;;;8499731;27;19919;-50
2023/08/22 08:05:52;;;;;;;;;;;24.10;61.00;;;;;;8501545;27;19968;-51
2023/08/22 08:09:52;;;;;;;;;;;24.10;61.00;;;;;;8499777;27;19956;-51
2023/08/22 08:13:53;;;;;;;;;;;24.10;61.00;;;;;;8500984;27;20365;-50
2023/08/22 08:17:53;;;;;;;;;;;24.10;61.00;;;;;;8499393;27;19924;-49
2023/08/22 08:21:54;;;;;;;;;;;24.10;61.00;;;;;;8500316;27;20006;-51
2023/08/22 08:25:54;;;;;;;;;;;24.10;61.00;;;;;;8500401;27;19912;-49
2023/08/22 08:29:55;;;;;;;;;;;24.00;60.90;;;;;;8500484;27;20485;-50
2023/08/22 08:33:56;;;;;;;;;;;24.10;61.00;;;;;;8499357;27;19918;-50
2023/08/22 08:37:57;;;;;;;;;;;24.10;61.20;;;;;;8499662;27;20334;-50
2023/08/22 08:42:09;;;;;;;;;;;24.00;60.90;;;;;;8500220;27;20377;-49
2023/08/22 08:46:09;;;;;;;;;;;24.10;61.00;;;;;;8498657;27;19907;-49
2023/08/22 08:50:10;;;;;;;;;;;24.10;61.00;;;;;;8500523;27;19957;-50
2023/08/22 08:54:11;;;;;;;;;;;24.10;61.00;;;;;;8499059;27;19907;-50
2023/08/22 08:58:11;;;;;;;;;;;24.10;61.00;;;;;;8500106;27;19912;-49
2023/08/22 09:02:15;;;;;;;;;;;24.10;61.00;;;;;;8498514;27;19919;-51
2023/08/22 09:06:15;;;;;;;;;;;24.10;61.00;;;;;;8500120;27;19923;-51
2023/08/22 09:10:31;;;;;;;;;;;24.10;61.00;;;;;;8498854;27;19917;-50
2023/08/22 09:14:31;;;;;;;;;;;24.10;61.00;;;;;;8497709;27;19907;-50
2023/08/22 09:18:32;;;;;;;;;;;24.00;61.00;;;;;;8499001;27;19939;-51
2023/08/22 09:22:34;;;;;;;;;;;24.10;61.10;;;;;;8479171;27;19922;-51
2023/08/22 09:26:35;;;;;;;;;;;24.10;61.10;;;;;;8499094;27;19908;-49
2023/08/22 09:30:35;;;;;;;;;;;24.10;61.00;;;;;;8497076;27;19915;-49
2023/08/22 09:34:36;;;;;;;;;;;24.00;61.00;;;;;;8497512;27;19915;-51
2023/08/22 09:38:56;;;;;;;;;;;24.10;61.00;;;;;;8497421;27;19977;-49
2023/08/22 09:42:56;;;;;;;;;;;24.10;61.00;;;;;;8478237;27;19923;-50
2023/08/22 09:46:57;;;;;;;;;;;24.10;61.00;;;;;;8498122;27;19911;-51
2023/08/22 09:50:59;;;;;;;;;;;24.00;60.90;;;;;;8496415;27;19912;-49
2023/08/22 09:54:59;;;;;;;;;;;24.10;61.00;;;;;;8497869;27;19947;-50
2023/08/22 09:59:01;;;;;;;;;;;24.10;61.00;;;;;;8496406;27;19922;-51
2023/08/22 10:03:02;;;;;;;;;;;24.10;61.00;;;;;;8497310;27;19912;-51
2023/08/22 10:07:02;;;;;;;;;;;24.10;61.00;;;;;;8478460;27;19934;-51
2023/08/22 10:11:04;;;;;;;;;;;24.10;61.00;;;;;;8478995;27;19918;-51
2023/08/22 10:15:06;;;;;;;;;;;24.10;60.90;;;;;;8496656;27;19914;-51
2023/08/22 10:19:08;;;;;;;;;;;24.10;60.90;;;;;;8496284;27;19923;-50
2023/08/22 10:23:09;;;;;;;;;;;24.10;60.90;;;;;;8497022;27;19911;-48
2023/08/22 10:27:13;;;;;;;;;;;24.10;60.90;;;;;;8496032;27;19968;-51
2023/08/22 10:31:14;;;;;;;;;;;24.10;60.90;;;;;;8478755;28;19947;-51
2023/08/22 10:35:17;;;;;;;;;;;24.10;60.90;;;;;;8495757;28;19912;-50
2023/08/22 10:39:34;;;;;;;;;;;24.10;60.90;;;;;;8497048;28;19914;-49
2023/08/22 10:43:38;;;;;;;;;;;24.10;60.90;;;;;;8496470;27;19911;-50
2023/08/22 10:47:39;;;;;;;;;;;24.10;60.90;;;;;;8503101;27;19908;-52
2023/08/22 10:51:43;;;;;;;;;;;24.10;60.90;;;;;;8503297;27;19908;-51
2023/08/22 10:55:44;;;;;;;;;;;24.00;60.90;;;;;;8502141;27;19911;-52
2023/08/22 10:59:59;;;;;;;;;;;24.10;60.90;;;;;;8503693;27;20060;-51
2023/08/22 11:04:00;;;;;;;;;;;24.00;60.90;;;;;;8502096;27;19918;-50
2023/08/22 11:08:04;;;;;;;;;;;24.10;61.00;;;;;;8502872;27;19919;-50
2023/08/22 11:12:16;;;;;;;;;;;24.10;61.00;;;;;;8502091;27;19908;-50
2023/08/22 11:16:18;;;;;;;;;;;24.00;60.90;;;;;;8501777;27;19919;-50
2023/08/22 11:20:26;;;;;;;;;;;24.10;60.90;;;;;;8502649;27;20178;-50
2023/08/22 11:24:27;;;;;;;;;;;24.10;61.00;;;;;;8501462;27;19911;-49
2023/08/22 11:28:29;;;;;;;;;;;24.10;60.90;;;;;;8502318;27;19912;-49
2023/08/22 11:32:31;;;;;;;;;;;24.10;60.90;;;;;;8500835;27;19915;-49
2023/08/22 11:36:33;;;;;;;;;;;24.10;60.90;;;;;;8501910;27;19914;-50
2023/08/22 11:40:34;;;;;;;;;;;24.10;60.90;;;;;;8501174;27;19912;-50
2023/08/22 11:44:50;;;;;;;;;;;24.10;60.90;;;;;;8500944;27;19911;-51
2023/08/22 11:48:51;;;;;;;;;;;24.10;60.90;;;;;;8501715;27;19907;-50
2023/08/22 11:52:53;;;;;;;;;;;24.10;60.80;;;;;;8500248;27;20436;-49
2023/08/22 11:56:58;;;;;;;;;;;24.10;60.90;;;;;;8501039;27;20010;-49
2023/08/22 12:01:00;;;;;;;;;;;24.10;60.80;;;;;;8500002;27;19911;-50
2023/08/22 12:05:01;;;;;;;;;;;24.10;60.80;;;;;;8500726;27;19907;-50
2023/08/22 12:09:01;;;;;;;;;;;24.10;60.80;;;;;;8499623;27;19933;-49
2023/08/22 12:13:02;;;;;;;;;;;24.10;60.70;;;;;;8481356;27;19915;-52
2023/08/22 12:17:03;;;;;;;;;;;24.10;60.70;;;;;;8499650;27;19928;-49
2023/08/22 12:21:03;;;;;;;;;;;24.10;60.70;;;;;;8500502;27;19923;-50
2023/08/22 12:25:04;;;;;;;;;;;24.10;60.70;;;;;;8501670;27;19920;-51
2023/08/22 12:29:05;;;;;;;;;;;24.10;60.70;;;;;;8499268;27;20014;-50
2023/08/22 12:33:06;;;;;;;;;;;24.10;60.70;;;;;;8500771;27;19912;-50
2023/08/22 12:37:06;;;;;;;;;;;24.20;60.70;;;;;;8499024;27;19912;-49
2023/08/22 12:41:07;;;;;;;;;;;24.10;60.70;;;;;;8500045;27;19915;-50
2023/08/22 12:45:09;;;;;;;;;;;24.10;60.80;;;;;;8499167;27;19915;-50
2023/08/22 12:49:09;;;;;;;;;;;24.10;60.70;;;;;;8499495;27;19918;-50
2023/08/22 12:53:10;;;;;;;;;;;24.10;60.70;;;;;;8499106;27;19908;-51
2023/08/22 12:57:10;;;;;;;;;;;24.10;60.70;;;;;;8498143;27;19918;-50
2023/08/22 13:01:11;;;;;;;;;;;24.10;60.70;;;;;;8480199;27;19926;-49
2023/08/22 13:05:13;;;;;;;;;;;24.10;60.70;;;;;;8498993;27;19907;-51
2023/08/22 13:09:14;;;;;;;;;;;24.10;60.70;;;;;;8480635;27;20395;-48
2023/08/22 13:13:14;;;;;;;;;;;24.20;60.70;;;;;;8497747;27;20257;-50
2023/08/22 13:17:16;;;;;;;;;;;24.10;60.60;;;;;;8499109;27;19930;-51
2023/08/22 13:21:16;;;;;;;;;;;24.20;60.70;;;;;;8479013;27;19958;-50
2023/08/22 13:25:17;;;;;;;;;;;24.20;60.70;;;;;;8499492;27;20365;-52
2023/08/22 13:29:17;;;;;;;;;;;24.20;60.70;;;;;;8497375;27;19957;-49
2023/08/22 13:33:18;;;;;;;;;;;24.20;60.70;;;;;;8498564;27;19912;-51
2023/08/22 13:37:18;;;;;;;;;;;24.10;60.60;;;;;;8479404;27;20257;-52
2023/08/22 13:41:19;;;;;;;;;;;24.20;60.60;;;;;;8479084;27;19923;-51
2023/08/22 13:45:19;;;;;;;;;;;24.20;60.60;;;;;;8498041;27;19912;-50
2023/08/22 13:49:20;;;;;;;;;;;24.20;60.50;;;;;;8496894;27;20300;-52
2023/08/22 13:53:20;;;;;;;;;;;24.20;60.60;;;;;;8497800;27;19939;-51
2023/08/22 13:57:21;;;;;;;;;;;24.20;60.60;;;;;;8496986;27;19919;-50
2023/08/22 14:01:22;;;;;;;;;;;24.20;60.60;;;;;;8497844;27;19922;-49
2023/08/22 14:05:22;;;;;;;;;;;24.20;60.60;;;;;;8496808;27;19916;-51
2023/08/22 14:09:23;;;;;;;;;;;24.20;60.50;;;;;;8497622;27;19907;-52
2023/08/22 14:13:24;;;;;;;;;;;24.20;60.60;;;;;;8496225;27;19912;-50
2023/08/22 14:17:24;;;;;;;;;;;24.20;60.60;;;;;;8478455;27;20045;-51
2023/08/22 14:21:25;;;;;;;;;;;24.20;61.40;;;;;;8496392;27;19970;-50
2023/08/22 14:25:25;;;;;;;;;;;24.20;60.60;;;;;;8496567;27;20018;-52
2023/08/22 14:29:26;;;;;;;;;;;24.20;60.60;;;;;;8497476;28;20555;-51
2023/08/22 14:33:26;;;;;;;;;;;24.20;60.60;;;;;;8495872;28;20116;-49
2023/08/22 14:37:27;;;;;;;;;;;24.20;60.60;;;;;;8497546;28;19907;-51
2023/08/22 14:41:27;;;;;;;;;;;24.20;60.50;;;;;;8495937;28;19945;-50
2023/08/22 14:45:28;;;;;;;;;;;24.20;60.50;;;;;;8496803;28;19956;-49
2023/08/22 14:49:28;;;;;;;;;;;24.20;60.50;;;;;;8495555;28;19973;-49
2023/08/22 14:53:29;;;;;;;;;;;24.20;60.50;;;;;;8496658;28;19918;-51
2023/08/22 14:57:29;;;;;;;;;;;24.20;60.50;;;;;;8496517;27;20558;-50
2023/08/22 15:01:30;;;;;;;;;;;24.20;60.50;;;;;;8496317;28;19964;-49
2023/08/22 15:05:40;;;;;;;;;;;24.20;60.50;;;;;;8496088;28;19912;-51
2023/08/22 15:09:40;;;;;;;;;;;24.20;60.50;;;;;;8496588;28;19911;-50
2023/08/22 15:13:41;;;;;;;;;;;24.20;60.50;;;;;;8496293;28;19922;-49
2023/08/22 15:17:41;;;;;;;;;;;24.20;60.50;;;;;;8494810;28;19935;-50
2023/08/22 15:21:42;;;;;;;;;;;24.20;60.50;;;;;;8496636;28;20158;-49
2023/08/22 15:25:45;;;;;;;;;;;24.20;60.50;;;;;;8495309;27;20388;-50
2023/08/22 15:29:46;;;;;;;;;;;24.20;60.50;;;;;;8495710;27;19914;-50
2023/08/22 15:33:46;;;;;;;;;;;24.20;60.40;;;;;;8500406;27;19911;-50
2023/08/22 15:37:47;;;;;;;;;;;24.20;60.50;;;;;;8502109;27;20403;-49
2023/08/22 15:41:48;;;;;;;;;;;24.20;60.50;;;;;;8501105;27;19922;-51
2023/08/22 15:45:48;;;;;;;;;;;24.20;60.60;;;;;;8501640;27;19918;-49
2023/08/22 15:49:49;;;;;;;;;;;24.20;60.50;;;;;;8501463;27;20333;-50
2023/08/22 15:53:49;;;;;;;;;;;24.20;60.60;;;;;;8500191;27;19918;-49
2023/08/22 15:57:50;;;;;;;;;;;24.20;60.60;;;;;;8501700;27;19911;-50
2023/08/22 16:01:50;;;;;;;;;;;24.20;60.60;;;;;;8500205;27;20376;-49
2023/08/22 16:05:55;;;;;;;;;;;24.20;60.50;;;;;;8501322;27;20318;-49
2023/08/22 16:09:56;;;;;;;;;;;24.20;60.60;;;;;;8499929;27;20016;-50
2023/08/22 16:13:56;;;;;;;;;;;24.20;60.60;;;;;;8500662;27;19907;-49
2023/08/22 16:17:57;;;;;;;;;;;24.20;60.60;;;;;;8499448;27;19927;-50
2023/08/22 16:21:57;;;;;;;;;;;24.20;60.40;;;;;;8517062;27;20481;-52
2023/08/22 16:25:58;;;;;;;;;;;24.20;60.40;;;;;;8500150;27;19911;-50
2023/08/22 16:29:59;;;;;;;;;;;24.30;60.40;;;;;;8499779;27;19937;-48
2023/08/22 16:34:03;;;;;;;;;;;24.30;60.40;;;;;;8500441;27;19912;-51
2023/08/22 16:38:04;;;;;;;;;;;24.20;60.40;;;;;;8498692;27;20299;-50
2023/08/22 16:42:04;;;;;;;;;;;24.20;60.50;;;;;;8499649;27;19911;-50
2023/08/22 16:46:05;;;;;;;;;;;24.20;60.60;;;;;;8498876;27;19918;-50
2023/08/22 16:50:06;;;;;;;;;;;24.40;59.80;;;;;;8500380;27;19918;-49
2023/08/22 16:54:08;;;;;;;;;;;24.50;59.60;;;;;;8498826;27;20414;-50
2023/08/22 16:58:09;;;;;;;;;;;24.70;58.90;;;;;;8499330;27;19933;-51
2023/08/22 17:02:09;;;;;;;;;;;24.70;59.80;;;;;;8532503;27;19911;-54
2023/08/22 17:06:12;;;;;;;;;;;24.80;62.80;;;;;;8532698;27;19907;-52
2023/08/22 17:10:13;;;;;;;;;;;24.90;60.20;;;;;;8533444;27;19911;-54
2023/08/22 17:14:13;;;;;;;;;;;24.90;60.60;;;;;;8531785;27;19917;-54
2023/08/22 17:18:14;;;;;;;;;;;24.90;61.00;;;;;;8533039;27;20005;-50
2023/08/22 17:22:15;;;;;;;;;;;25.00;61.00;;;;;;8531325;27;19915;-50
2023/08/22 17:26:16;;;;;;;;;;;25.00;62.10;;;;;;8513911;27;19911;-48
2023/08/22 17:30:17;;;;;;;;;;;25.00;61.70;;;;;;8479332;27;19911;-50
2023/08/22 17:34:17;;;;;;;;;;;25.00;61.30;;;;;;8479362;27;19919;-51
2023/08/22 17:38:18;;;;;;;;;;;25.10;62.00;;;;;;8521438;27;19917;-48
2023/08/22 17:42:18;;;;;;;;;;;25.10;62.30;;;;;;8531521;27;19922;-47
2023/08/22 17:46:19;;;;;;;;;;;25.10;62.30;;;;;;8525962;27;19911;-54
2023/08/22 17:50:19;;;;;;;;;;;25.20;62.40;;;;;;8511254;27;19954;-53
2023/08/22 17:54:20;;;;;;;;;;;25.20;62.70;;;;;;8529792;27;19911;-49
2023/08/22 17:58:21;;;;;;;;;;;25.30;62.70;;;;;;8518538;27;19915;-55
2023/08/22 18:02:22;;;;;;;;;;;25.30;62.40;;;;;;8528690;27;19967;-51
2023/08/22 18:06:22;;;;;;;;;;;25.30;62.60;;;;;;8530481;27;19915;-52
2023/08/22 18:10:23;;;;;;;;;;;25.30;62.70;;;;;;8529924;27;19915;-48
2023/08/22 18:14:23;;;;;;;;;;;25.30;62.80;;;;;;8529903;27;19922;-50
2023/08/22 18:18:24;;;;;;;;;;;25.30;63.30;;;;;;8511934;27;19972;-52
2023/08/22 18:22:25;;;;;;;;;;;25.30;63.10;;;;;;8507533;27;20291;-52
2023/08/22 18:26:30;;;;;;;;;;;25.30;63.20;;;;;;8484104;27;20296;-51
2023/08/22 18:30:30;;;;;;;;;;;25.40;63.40;;;;;;8481837;28;19919;-50
2023/08/22 18:34:31;;;;;;;;;;;25.30;63.50;;;;;;8504839;27;19912;-51
2023/08/22 18:38:31;;;;;;;;;;;25.30;63.60;;;;;;8511820;27;20373;-53
2023/08/22 18:42:32;;;;;;;;;;;25.30;63.70;;;;;;8513207;27;19950;-56
2023/08/22 18:46:32;;;;;;;;;;;25.30;63.30;;;;;;8497137;27;19920;-48
2023/08/22 18:50:33;;;;;;;;;;;25.30;64.10;;;;;;8493736;27;19998;-53
2023/08/22 18:54:33;;;;;;;;;;;25.30;64.00;;;;;;8493523;27;19915;-50
2023/08/22 18:58:35;;;;;;;;;;;25.30;63.80;;;;;;8483164;28;20006;-52
2023/08/22 19:02:35;;;;;;;;;;;25.30;64.00;;;;;;8494010;27;19918;-51
2023/08/22 19:06:36;;;;;;;;;;;25.20;64.40;;;;;;8502968;27;19912;-54
2023/08/22 19:10:42;;;;;;;;;;;25.20;64.40;;;;;;8500558;27;19955;-47
2023/08/22 19:14:43;;;;;;;;;;;25.20;64.30;;;;;;8504578;27;20453;-51
2023/08/22 19:18:43;;;;;;;;;;;25.20;64.60;;;;;;8511335;27;19923;-50
2023/08/22 19:22:44;;;;;;;;;;;25.20;64.40;;;;;;8524072;27;19926;-47
2023/08/22 19:26:45;;;;;;;;;;;25.10;64.70;;;;;;8520568;27;19920;-55
2023/08/22 19:30:45;;;;;;;;;;;25.10;64.50;;;;;;8505504;27;19965;-56
2023/08/22 19:34:46;;;;;;;;;;;25.10;64.40;;;;;;8506027;27;19916;-51
2023/08/22 19:38:47;;;;;;;;;;;25.20;64.20;;;;;;8499386;27;19961;-53
2023/08/22 19:42:48;;;;;;;;;;;25.10;64.00;;;;;;8500667;27;19915;-50
2023/08/22 19:46:49;;;;;;;;;;;25.20;63.90;;;;;;8509470;27;20413;-50
2023/08/22 19:50:49;;;;;;;;;;;25.20;63.90;;;;;;8499204;27;20329;-50
2023/08/22 19:54:50;;;;;;;;;;;25.10;63.90;;;;;;8497120;27;19923;-51
2023/08/22 19:58:51;;;;;;;;;;;25.10;63.90;;;;;;8490252;27;20387;-56
2023/08/22 20:02:51;;;;;;;;;;;25.20;64.70;;;;;;8521255;27;19918;-52
2023/08/22 20:06:52;;;;;;;;;;;25.10;63.90;;;;;;8504488;27;20010;-49
2023/08/22 20:10:53;;;;;;;;;;;25.10;63.70;;;;;;8500641;27;20430;-57
2023/08/22 20:14:53;;;;;;;;;;;25.10;63.90;;;;;;8502177;27;19919;-51
2023/08/22 20:18:54;;;;;;;;;;;25.10;63.80;;;;;;8527245;27;19930;-54
2023/08/22 20:22:55;;;;;;;;;;;25.10;63.70;;;;;;8533019;27;19915;-53
2023/08/22 20:26:59;;;;;;;;;;;25.10;64.00;;;;;;8518464;27;20386;-52
2023/08/22 20:31:00;;;;;;;;;;;25.10;64.00;;;;;;8532865;27;19922;-51
2023/08/22 20:35:00;;;;;;;;;;;25.10;64.20;;;;;;8533711;27;19915;-49
2023/08/22 20:39:03;;;;;;;;;;;25.10;64.30;;;;;;8532855;27;20001;-53
2023/08/22 20:43:04;;;;;;;;;;;25.10;64.10;;;;;;8533078;27;20182;-56
2023/08/22 20:47:04;;;;;;;;;;;25.10;63.90;;;;;;8532657;27;20432;-56
2023/08/22 20:51:05;;;;;;;;;;;25.10;64.20;;;;;;8513683;27;19923;-53
2023/08/22 20:55:05;;;;;;;;;;;25.10;64.00;;;;;;8527744;27;19918;-53
2023/08/22 20:59:06;;;;;;;;;;;25.10;64.10;;;;;;8519696;27;19915;-51
2023/08/22 21:03:07;;;;;;;;;;;25.10;64.10;;;;;;8530429;27;19951;-50
2023/08/22 21:07:07;;;;;;;;;;;25.00;64.00;;;;;;8529718;27;19945;-51
2023/08/22 21:11:08;;;;;;;;;;;25.00;64.20;;;;;;8530123;27;19934;-51
2023/08/22 21:15:09;;;;;;;;;;;24.90;64.40;;;;;;8530428;27;19922;-50
2023/08/22 21:19:09;;;;;;;;;;;24.80;64.50;;;;;;8511825;27;19923;-50
2023/08/22 21:23:10;;;;;;;;;;;24.80;64.50;;;;;;8530506;27;19965;-50
2023/08/22 21:27:11;;;;;;;;;;;24.80;64.60;;;;;;8507358;27;19930;-50
2023/08/22 21:31:12;;;;;;;;;;;24.80;64.50;;;;;;8495716;27;19908;-53
2023/08/22 21:35:12;;;;;;;;;;;24.80;64.40;;;;;;8495730;27;19911;-50
2023/08/22 21:39:15;;;;;;;;;;;24.70;64.20;;;;;;8495336;27;20192;-52
2023/08/22 21:43:15;;;;;;;;;;;24.70;64.10;;;;;;8495643;27;19977;-50
2023/08/22 21:47:16;;;;;;;;;;;24.70;64.00;;;;;;8496095;27;19912;-52
2023/08/22 21:51:16;;;;;;;;;;;24.70;63.90;;;;;;8477175;27;19918;-49
2023/08/22 21:55:17;;;;;;;;;;;24.70;63.80;;;;;;8495685;27;19911;-51
2023/08/22 21:59:21;;;;;;;;;;;24.70;63.90;;;;;;8511043;27;19912;-51
2023/08/22 22:03:21;;;;;;;;;;;24.60;63.70;;;;;;8495034;27;19942;-52
2023/08/22 22:07:22;;;;;;;;;;;24.70;63.60;;;;;;8494978;27;19912;-50
2023/08/22 22:11:22;;;;;;;;;;;24.70;63.60;;;;;;8494673;27;19918;-52
2023/08/22 22:15:24;;;;;;;;;;;24.70;63.50;;;;;;8494779;27;19922;-50
2023/08/22 22:19:24;;;;;;;;;;;24.70;63.50;;;;;;8494764;27;19927;-51
2023/08/22 22:23:25;;;;;;;;;;;24.60;63.40;;;;;;8494505;27;20411;-49
2023/08/22 22:27:25;;;;;;;;;;;24.60;63.40;;;;;;8494779;27;19998;-49
2023/08/22 22:31:26;;;;;;;;;;;24.60;63.50;;;;;;8494632;28;20417;-50
2023/08/22 22:35:26;;;;;;;;;;;24.60;63.60;;;;;;8494477;28;19919;-50
2023/08/22 22:39:27;;;;;;;;;;;24.60;63.60;;;;;;8494592;27;20369;-48
2023/08/22 22:43:28;;;;;;;;;;;24.60;63.50;;;;;;8501489;27;19915;-49
2023/08/22 22:47:28;;;;;;;;;;;24.60;63.50;;;;;;8501225;27;19911;-52
2023/08/22 22:51:29;;;;;;;;;;;24.60;63.40;;;;;;8501248;27;19915;-49
2023/08/22 22:55:30;;;;;;;;;;;24.60;63.40;;;;;;8501599;27;20413;-51
2023/08/22 22:59:30;;;;;;;;;;;24.60;63.40;;;;;;8500838;27;19973;-49
2023/08/22 23:03:31;;;;;;;;;;;24.60;63.40;;;;;;8500777;27;19923;-50
2023/08/22 23:07:31;;;;;;;;;;;24.60;63.40;;;;;;8500662;27;19963;-50
2023/08/22 23:11:32;;;;;;;;;;;24.60;63.30;;;;;;8500489;27;19916;-51
2023/08/22 23:15:32;;;;;;;;;;;24.50;63.10;;;;;;8500528;27;19912;-50
2023/08/22 23:19:33;;;;;;;;;;;24.60;63.20;;;;;;8500094;27;20339;-50